sensor_id;sensor_type;location;lat;lon;timestamp;P1;durP1;ratioP1;P2;durP2;ratioP2
45836;SDS011;31548;51.420;-0.040;2024-03-25T00:00:15;12.02;;;2.95;;
45836;SDS011;31548;51.420;-0.040;2024-03-25T00:02:41;9.02;;;1.92;;
45836;SDS011;31548;51.420;-0.040;2024-03-25T00:05:08;9.95;;;2.70;;
45836;SDS011;31548;51.420;-0.040;2024-03-25T00:07:35;8.15;;;2.65;;
45836;SDS011;31548;51.420;-0.040;2024-03-25T00:10:02;10.63;;;2.67;;
45836;SDS011;31548;51.420;-0.040;2024-03-25T00:12:32;11.68;;;2.65;;
45836;SDS011;31548;51.420;-0.040;2024-03-25T00:14:58;7.45;;;2.25;;
45836;SDS011;31548;51.420;-0.040;2024-03-25T00:17:24;7.43;;;2.05;;
45836;SDS011;31548;51.420;-0.040;2024-03-25T00:19:50;7.75;;;2.15;;
45836;SDS011;31548;51.420;-0.040;2024-03-25T00:22:18;10.00;;;2.60;;
45836;SDS011;31548;51.420;-0.040;2024-03-25T00:24:45;7.13;;;2.22;;
45836;SDS011;31548;51.420;-0.040;2024-03-25T00:27:12;13.43;;;2.50;;
45836;SDS011;31548;51.420;-0.040;2024-03-25T00:29:39;8.45;;;1.70;;
45836;SDS011;31548;51.420;-0.040;2024-03-25T00:32:06;9.55;;;2.22;;
45836;SDS011;31548;51.420;-0.040;2024-03-25T00:34:32;5.82;;;1.67;;
45836;SDS011;31548;51.420;-0.040;2024-03-25T00:36:59;8.18;;;2.28;;
45836;SDS011;31548;51.420;-0.040;2024-03-25T00:39:26;8.15;;;1.90;;
45836;SDS011;31548;51.420;-0.040;2024-03-25T00:41:53;11.02;;;2.00;;
45836;SDS011;31548;51.420;-0.040;2024-03-25T00:44:20;13.75;;;2.45;;
45836;SDS011;31548;51.420;-0.040;2024-03-25T00:46:46;8.32;;;2.25;;
45836;SDS011;31548;51.420;-0.040;2024-03-25T00:49:12;4.75;;;1.83;;
45836;SDS011;31548;51.420;-0.040;2024-03-25T00:51:39;9.60;;;2.55;;
45836;SDS011;31548;51.420;-0.040;2024-03-25T00:54:05;9.20;;;1.92;;
45836;SDS011;31548;51.420;-0.040;2024-03-25T00:56:31;7.28;;;1.90;;
45836;SDS011;31548;51.420;-0.040;2024-03-25T00:58:58;12.48;;;2.03;;
45836;SDS011;31548;51.420;-0.040;2024-03-25T01:01:28;15.48;;;1.90;;
45836;SDS011;31548;51.420;-0.040;2024-03-25T01:03:55;5.65;;;1.60;;
45836;SDS011;31548;51.420;-0.040;2024-03-25T01:06:21;9.48;;;1.77;;
45836;SDS011;31548;51.420;-0.040;2024-03-25T01:08:48;8.15;;;2.22;;
45836;SDS011;31548;51.420;-0.040;2024-03-25T01:11:14;6.05;;;1.50;;
45836;SDS011;31548;51.420;-0.040;2024-03-25T01:13:41;11.88;;;1.40;;
45836;SDS011;31548;51.420;-0.040;2024-03-25T01:16:07;5.47;;;1.80;;
45836;SDS011;31548;51.420;-0.040;2024-03-25T01:18:34;4.82;;;1.48;;
45836;SDS011;31548;51.420;-0.040;2024-03-25T01:21:00;7.93;;;1.00;;
45836;SDS011;31548;51.420;-0.040;2024-03-25T01:23:26;7.70;;;1.92;;
45836;SDS011;31548;51.420;-0.040;2024-03-25T01:25:53;3.78;;;1.00;;
45836;SDS011;31548;51.420;-0.040;2024-03-25T01:28:19;13.77;;;2.30;;
45836;SDS011;31548;51.420;-0.040;2024-03-25T01:30:45;11.07;;;1.70;;
45836;SDS011;31548;51.420;-0.040;2024-03-25T01:33:11;8.05;;;1.85;;
45836;SDS011;31548;51.420;-0.040;2024-03-25T01:35:38;5.95;;;1.30;;
45836;SDS011;31548;51.420;-0.040;2024-03-25T01:38:04;8.43;;;1.80;;
45836;SDS011;31548;51.420;-0.040;2024-03-25T01:40:30;7.40;;;1.23;;
45836;SDS011;31548;51.420;-0.040;2024-03-25T01:42:57;5.25;;;1.42;;
45836;SDS011;31548;51.420;-0.040;2024-03-25T01:45:24;11.00;;;1.55;;
45836;SDS011;31548;51.420;-0.040;2024-03-25T01:47:53;10.68;;;1.85;;
45836;SDS011;31548;51.420;-0.040;2024-03-25T01:50:20;7.65;;;1.40;;
45836;SDS011;31548;51.420;-0.040;2024-03-25T01:52:47;8.18;;;1.55;;
45836;SDS011;31548;51.420;-0.040;2024-03-25T01:55:18;12.70;;;1.38;;
45836;SDS011;31548;51.420;-0.040;2024-03-25T01:57:47;5.53;;;0.90;;
45836;SDS011;31548;51.420;-0.040;2024-03-25T02:00:14;7.53;;;1.30;;
45836;SDS011;31548;51.420;-0.040;2024-03-25T02:02:45;7.95;;;1.88;;
45836;SDS011;31548;51.420;-0.040;2024-03-25T02:05:15;9.98;;;1.42;;
45836;SDS011;31548;51.420;-0.040;2024-03-25T02:07:42;6.72;;;1.95;;
45836;SDS011;31548;51.420;-0.040;2024-03-25T02:10:09;4.70;;;1.10;;
45836;SDS011;31548;51.420;-0.040;2024-03-25T02:12:42;7.88;;;1.52;;
45836;SDS011;31548;51.420;-0.040;2024-03-25T02:15:11;6.13;;;1.40;;
45836;SDS011;31548;51.420;-0.040;2024-03-25T02:17:41;10.75;;;1.30;;
45836;SDS011;31548;51.420;-0.040;2024-03-25T02:20:07;4.55;;;1.40;;
45836;SDS011;31548;51.420;-0.040;2024-03-25T02:22:35;7.75;;;1.10;;
45836;SDS011;31548;51.420;-0.040;2024-03-25T02:25:04;10.45;;;1.30;;
45836;SDS011;31548;51.420;-0.040;2024-03-25T02:27:36;4.15;;;1.15;;
45836;SDS011;31548;51.420;-0.040;2024-03-25T02:30:07;5.55;;;1.65;;
45836;SDS011;31548;51.420;-0.040;2024-03-25T02:32:35;8.25;;;1.15;;
45836;SDS011;31548;51.420;-0.040;2024-03-25T02:35:02;3.65;;;1.17;;
45836;SDS011;31548;51.420;-0.040;2024-03-25T02:37:31;11.45;;;1.30;;
45836;SDS011;31548;51.420;-0.040;2024-03-25T02:39:59;7.45;;;1.20;;
45836;SDS011;31548;51.420;-0.040;2024-03-25T02:42:27;8.98;;;1.25;;
45836;SDS011;31548;51.420;-0.040;2024-03-25T02:44:55;6.60;;;1.10;;
45836;SDS011;31548;51.420;-0.040;2024-03-25T02:47:21;4.38;;;1.00;;
45836;SDS011;31548;51.420;-0.040;2024-03-25T02:49:48;5.30;;;1.27;;
45836;SDS011;31548;51.420;-0.040;2024-03-25T02:52:14;11.80;;;1.30;;
45836;SDS011;31548;51.420;-0.040;2024-03-25T02:54:41;11.25;;;1.10;;
45836;SDS011;31548;51.420;-0.040;2024-03-25T02:57:07;14.20;;;1.42;;
45836;SDS011;31548;51.420;-0.040;2024-03-25T02:59:33;8.98;;;1.30;;
45836;SDS011;31548;51.420;-0.040;2024-03-25T03:01:59;6.30;;;1.90;;
45836;SDS011;31548;51.420;-0.040;2024-03-25T03:04:25;6.30;;;1.23;;
45836;SDS011;31548;51.420;-0.040;2024-03-25T03:06:52;3.90;;;1.10;;
45836;SDS011;31548;51.420;-0.040;2024-03-25T03:09:18;4.05;;;1.10;;
45836;SDS011;31548;51.420;-0.040;2024-03-25T03:11:44;4.68;;;1.13;;
45836;SDS011;31548;51.420;-0.040;2024-03-25T03:14:11;7.90;;;1.10;;
45836;SDS011;31548;51.420;-0.040;2024-03-25T03:16:37;3.85;;;1.25;;
45836;SDS011;31548;51.420;-0.040;2024-03-25T03:19:03;5.65;;;1.25;;
45836;SDS011;31548;51.420;-0.040;2024-03-25T03:21:31;6.65;;;1.08;;
45836;SDS011;31548;51.420;-0.040;2024-03-25T03:23:58;8.93;;;1.23;;
45836;SDS011;31548;51.420;-0.040;2024-03-25T03:26:24;5.03;;;1.33;;
45836;SDS011;31548;51.420;-0.040;2024-03-25T03:28:53;3.65;;;0.95;;
45836;SDS011;31548;51.420;-0.040;2024-03-25T03:31:20;3.47;;;0.85;;
45836;SDS011;31548;51.420;-0.040;2024-03-25T03:33:49;8.75;;;1.15;;
45836;SDS011;31548;51.420;-0.040;2024-03-25T03:36:16;7.70;;;1.35;;
45836;SDS011;31548;51.420;-0.040;2024-03-25T03:38:43;8.27;;;1.40;;
45836;SDS011;31548;51.420;-0.040;2024-03-25T03:41:10;9.05;;;1.63;;
45836;SDS011;31548;51.420;-0.040;2024-03-25T03:43:36;3.22;;;1.27;;
45836;SDS011;31548;51.420;-0.040;2024-03-25T03:46:03;6.28;;;0.98;;
45836;SDS011;31548;51.420;-0.040;2024-03-25T03:48:30;5.63;;;1.15;;
45836;SDS011;31548;51.420;-0.040;2024-03-25T03:50:56;6.05;;;1.00;;
45836;SDS011;31548;51.420;-0.040;2024-03-25T03:53:22;6.28;;;0.98;;
45836;SDS011;31548;51.420;-0.040;2024-03-25T03:58:22;9.48;;;1.33;;
45836;SDS011;31548;51.420;-0.040;2024-03-25T04:00:49;5.88;;;0.98;;
45836;SDS011;31548;51.420;-0.040;2024-03-25T04:03:16;2.78;;;0.98;;
45836;SDS011;31548;51.420;-0.040;2024-03-25T04:05:42;4.40;;;1.08;;
45836;SDS011;31548;51.420;-0.040;2024-03-25T04:08:08;7.90;;;1.05;;
45836;SDS011;31548;51.420;-0.040;2024-03-25T04:10:35;9.20;;;1.13;;
45836;SDS011;31548;51.420;-0.040;2024-03-25T04:13:02;4.47;;;1.10;;
45836;SDS011;31548;51.420;-0.040;2024-03-25T04:15:35;4.28;;;0.80;;
45836;SDS011;31548;51.420;-0.040;2024-03-25T04:18:02;4.93;;;0.98;;
45836;SDS011;31548;51.420;-0.040;2024-03-25T04:20:29;5.88;;;1.20;;
45836;SDS011;31548;51.420;-0.040;2024-03-25T04:23:01;7.28;;;1.13;;
45836;SDS011;31548;51.420;-0.040;2024-03-25T04:25:28;7.30;;;1.40;;
45836;SDS011;31548;51.420;-0.040;2024-03-25T04:27:54;8.93;;;1.13;;
45836;SDS011;31548;51.420;-0.040;2024-03-25T04:30:20;5.70;;;1.30;;
45836;SDS011;31548;51.420;-0.040;2024-03-25T04:32:46;4.00;;;0.90;;
45836;SDS011;31548;51.420;-0.040;2024-03-25T04:35:12;7.35;;;1.13;;
45836;SDS011;31548;51.420;-0.040;2024-03-25T04:37:39;7.93;;;1.08;;
45836;SDS011;31548;51.420;-0.040;2024-03-25T04:40:07;4.13;;;1.00;;
45836;SDS011;31548;51.420;-0.040;2024-03-25T04:42:34;7.00;;;1.25;;
45836;SDS011;31548;51.420;-0.040;2024-03-25T04:45:00;12.32;;;1.13;;
45836;SDS011;31548;51.420;-0.040;2024-03-25T04:47:26;3.90;;;1.05;;
45836;SDS011;31548;51.420;-0.040;2024-03-25T04:49:52;3.03;;;0.95;;
45836;SDS011;31548;51.420;-0.040;2024-03-25T04:52:18;7.32;;;1.27;;
45836;SDS011;31548;51.420;-0.040;2024-03-25T04:54:49;4.97;;;0.98;;
45836;SDS011;31548;51.420;-0.040;2024-03-25T04:57:15;8.80;;;1.17;;
45836;SDS011;31548;51.420;-0.040;2024-03-25T04:59:41;7.20;;;1.40;;
45836;SDS011;31548;51.420;-0.040;2024-03-25T05:02:08;8.75;;;1.52;;
45836;SDS011;31548;51.420;-0.040;2024-03-25T05:04:34;8.05;;;1.48;;
45836;SDS011;31548;51.420;-0.040;2024-03-25T05:07:01;3.80;;;0.90;;
45836;SDS011;31548;51.420;-0.040;2024-03-25T05:09:27;7.93;;;1.58;;
45836;SDS011;31548;51.420;-0.040;2024-03-25T05:11:53;5.50;;;1.10;;
45836;SDS011;31548;51.420;-0.040;2024-03-25T05:14:19;8.02;;;1.15;;
45836;SDS011;31548;51.420;-0.040;2024-03-25T05:16:46;8.15;;;1.40;;
45836;SDS011;31548;51.420;-0.040;2024-03-25T05:19:12;9.38;;;1.50;;
45836;SDS011;31548;51.420;-0.040;2024-03-25T05:21:39;6.57;;;1.48;;
45836;SDS011;31548;51.420;-0.040;2024-03-25T05:24:06;5.88;;;1.65;;
45836;SDS011;31548;51.420;-0.040;2024-03-25T05:26:32;5.78;;;1.10;;
45836;SDS011;31548;51.420;-0.040;2024-03-25T05:28:59;6.22;;;1.00;;
45836;SDS011;31548;51.420;-0.040;2024-03-25T05:31:25;6.65;;;1.15;;
45836;SDS011;31548;51.420;-0.040;2024-03-25T05:33:51;11.07;;;1.58;;
45836;SDS011;31548;51.420;-0.040;2024-03-25T05:36:17;8.80;;;1.40;;
45836;SDS011;31548;51.420;-0.040;2024-03-25T05:38:44;10.52;;;1.30;;
45836;SDS011;31548;51.420;-0.040;2024-03-25T05:41:10;6.93;;;1.30;;
45836;SDS011;31548;51.420;-0.040;2024-03-25T05:43:37;4.93;;;1.00;;
45836;SDS011;31548;51.420;-0.040;2024-03-25T05:46:03;7.30;;;1.27;;
45836;SDS011;31548;51.420;-0.040;2024-03-25T05:48:30;6.68;;;1.10;;
45836;SDS011;31548;51.420;-0.040;2024-03-25T05:51:04;9.68;;;1.17;;
45836;SDS011;31548;51.420;-0.040;2024-03-25T05:53:31;9.25;;;1.50;;
45836;SDS011;31548;51.420;-0.040;2024-03-25T05:55:57;4.05;;;1.33;;
45836;SDS011;31548;51.420;-0.040;2024-03-25T05:58:24;7.05;;;1.17;;
45836;SDS011;31548;51.420;-0.040;2024-03-25T06:00:51;7.25;;;1.42;;
45836;SDS011;31548;51.420;-0.040;2024-03-25T06:03:21;6.95;;;1.10;;
45836;SDS011;31548;51.420;-0.040;2024-03-25T06:05:47;9.18;;;1.10;;
45836;SDS011;31548;51.420;-0.040;2024-03-25T06:08:14;2.63;;;1.00;;
45836;SDS011;31548;51.420;-0.040;2024-03-25T06:11:06;4.88;;;1.17;;
45836;SDS011;31548;51.420;-0.040;2024-03-25T06:13:32;11.18;;;1.15;;
45836;SDS011;31548;51.420;-0.040;2024-03-25T06:15:59;8.93;;;1.20;;
45836;SDS011;31548;51.420;-0.040;2024-03-25T06:18:25;12.00;;;1.80;;
45836;SDS011;31548;51.420;-0.040;2024-03-25T06:20:51;6.22;;;1.42;;
45836;SDS011;31548;51.420;-0.040;2024-03-25T06:23:21;10.57;;;1.13;;
45836;SDS011;31548;51.420;-0.040;2024-03-25T06:25:53;9.23;;;0.93;;
45836;SDS011;31548;51.420;-0.040;2024-03-25T06:28:20;9.23;;;1.30;;
45836;SDS011;31548;51.420;-0.040;2024-03-25T06:30:47;6.95;;;1.15;;
45836;SDS011;31548;51.420;-0.040;2024-03-25T06:33:32;13.75;;;1.33;;
45836;SDS011;31548;51.420;-0.040;2024-03-25T06:36:17;6.13;;;1.15;;
45836;SDS011;31548;51.420;-0.040;2024-03-25T06:38:44;9.93;;;1.30;;
45836;SDS011;31548;51.420;-0.040;2024-03-25T06:41:11;7.70;;;1.30;;
45836;SDS011;31548;51.420;-0.040;2024-03-25T06:43:37;7.25;;;1.02;;
45836;SDS011;31548;51.420;-0.040;2024-03-25T06:46:04;6.55;;;0.90;;
45836;SDS011;31548;51.420;-0.040;2024-03-25T06:48:32;9.63;;;1.60;;
45836;SDS011;31548;51.420;-0.040;2024-03-25T06:51:00;6.18;;;1.35;;
45836;SDS011;31548;51.420;-0.040;2024-03-25T06:53:30;14.43;;;1.33;;
45836;SDS011;31548;51.420;-0.040;2024-03-25T06:55:56;13.52;;;2.13;;
45836;SDS011;31548;51.420;-0.040;2024-03-25T06:58:23;12.80;;;1.63;;
45836;SDS011;31548;51.420;-0.040;2024-03-25T07:00:51;12.90;;;1.58;;
45836;SDS011;31548;51.420;-0.040;2024-03-25T07:03:19;19.48;;;1.77;;
45836;SDS011;31548;51.420;-0.040;2024-03-25T07:05:49;12.50;;;1.65;;
45836;SDS011;31548;51.420;-0.040;2024-03-25T07:08:20;13.52;;;1.20;;
45836;SDS011;31548;51.420;-0.040;2024-03-25T07:10:47;15.38;;;1.70;;
45836;SDS011;31548;51.420;-0.040;2024-03-25T07:13:14;9.30;;;1.23;;
45836;SDS011;31548;51.420;-0.040;2024-03-25T07:15:40;18.13;;;1.35;;
45836;SDS011;31548;51.420;-0.040;2024-03-25T07:18:07;12.45;;;1.67;;
45836;SDS011;31548;51.420;-0.040;2024-03-25T07:20:36;7.68;;;1.10;;
45836;SDS011;31548;51.420;-0.040;2024-03-25T07:23:03;13.10;;;1.10;;
45836;SDS011;31548;51.420;-0.040;2024-03-25T07:25:29;9.57;;;1.27;;
45836;SDS011;31548;51.420;-0.040;2024-03-25T07:27:55;17.98;;;1.20;;
45836;SDS011;31548;51.420;-0.040;2024-03-25T07:30:22;11.02;;;1.27;;
45836;SDS011;31548;51.420;-0.040;2024-03-25T07:32:51;11.05;;;1.40;;
45836;SDS011;31548;51.420;-0.040;2024-03-25T07:35:17;14.43;;;1.50;;
45836;SDS011;31548;51.420;-0.040;2024-03-25T07:37:44;21.85;;;1.48;;
45836;SDS011;31548;51.420;-0.040;2024-03-25T07:40:10;11.30;;;1.25;;
45836;SDS011;31548;51.420;-0.040;2024-03-25T07:42:39;14.43;;;1.30;;
45836;SDS011;31548;51.420;-0.040;2024-03-25T07:45:06;16.52;;;1.85;;
45836;SDS011;31548;51.420;-0.040;2024-03-25T07:47:32;7.03;;;1.10;;
45836;SDS011;31548;51.420;-0.040;2024-03-25T07:49:59;13.07;;;1.17;;
45836;SDS011;31548;51.420;-0.040;2024-03-25T07:52:25;14.93;;;1.30;;
45836;SDS011;31548;51.420;-0.040;2024-03-25T07:54:53;18.50;;;1.27;;
45836;SDS011;31548;51.420;-0.040;2024-03-25T07:57:19;15.80;;;1.95;;
45836;SDS011;31548;51.420;-0.040;2024-03-25T07:59:46;15.68;;;1.50;;
45836;SDS011;31548;51.420;-0.040;2024-03-25T08:02:13;9.50;;;1.25;;
45836;SDS011;31548;51.420;-0.040;2024-03-25T08:04:39;11.00;;;1.25;;
45836;SDS011;31548;51.420;-0.040;2024-03-25T08:07:06;11.05;;;1.08;;
45836;SDS011;31548;51.420;-0.040;2024-03-25T08:09:32;12.10;;;1.23;;
45836;SDS011;31548;51.420;-0.040;2024-03-25T08:11:59;12.30;;;1.27;;
45836;SDS011;31548;51.420;-0.040;2024-03-25T08:14:25;10.10;;;1.30;;
45836;SDS011;31548;51.420;-0.040;2024-03-25T08:16:52;10.63;;;1.08;;
45836;SDS011;31548;51.420;-0.040;2024-03-25T08:19:18;13.70;;;1.52;;
45836;SDS011;31548;51.420;-0.040;2024-03-25T08:21:44;12.07;;;1.20;;
45836;SDS011;31548;51.420;-0.040;2024-03-25T08:24:10;15.95;;;1.48;;
45836;SDS011;31548;51.420;-0.040;2024-03-25T08:26:37;12.27;;;1.35;;
45836;SDS011;31548;51.420;-0.040;2024-03-25T08:29:03;12.60;;;1.23;;
45836;SDS011;31548;51.420;-0.040;2024-03-25T08:31:30;11.73;;;1.45;;
45836;SDS011;31548;51.420;-0.040;2024-03-25T08:33:56;12.43;;;1.13;;
45836;SDS011;31548;51.420;-0.040;2024-03-25T08:36:22;12.50;;;1.25;;
45836;SDS011;31548;51.420;-0.040;2024-03-25T08:38:49;10.35;;;1.67;;
45836;SDS011;31548;51.420;-0.040;2024-03-25T08:41:15;12.23;;;0.98;;
45836;SDS011;31548;51.420;-0.040;2024-03-25T08:43:41;9.65;;;1.20;;
45836;SDS011;31548;51.420;-0.040;2024-03-25T08:46:07;17.95;;;1.55;;
45836;SDS011;31548;51.420;-0.040;2024-03-25T08:48:34;11.18;;;1.00;;
45836;SDS011;31548;51.420;-0.040;2024-03-25T08:51:00;8.80;;;1.10;;
45836;SDS011;31548;51.420;-0.040;2024-03-25T08:53:26;7.78;;;1.00;;
45836;SDS011;31548;51.420;-0.040;2024-03-25T08:55:52;13.95;;;1.15;;
45836;SDS011;31548;51.420;-0.040;2024-03-25T08:58:19;17.50;;;1.10;;
45836;SDS011;31548;51.420;-0.040;2024-03-25T09:00:45;9.45;;;0.90;;
45836;SDS011;31548;51.420;-0.040;2024-03-25T09:03:11;8.75;;;0.70;;
45836;SDS011;31548;51.420;-0.040;2024-03-25T09:05:38;13.63;;;1.00;;
45836;SDS011;31548;51.420;-0.040;2024-03-25T09:08:08;6.22;;;1.27;;
45836;SDS011;31548;51.420;-0.040;2024-03-25T09:10:37;17.20;;;1.08;;
45836;SDS011;31548;51.420;-0.040;2024-03-25T09:13:22;10.23;;;0.80;;
45836;SDS011;31548;51.420;-0.040;2024-03-25T09:15:51;11.35;;;1.15;;
45836;SDS011;31548;51.420;-0.040;2024-03-25T09:18:20;14.93;;;1.42;;
45836;SDS011;31548;51.420;-0.040;2024-03-25T09:20:46;9.77;;;0.80;;
45836;SDS011;31548;51.420;-0.040;2024-03-25T09:23:12;8.20;;;1.23;;
45836;SDS011;31548;51.420;-0.040;2024-03-25T09:25:39;15.27;;;1.10;;
45836;SDS011;31548;51.420;-0.040;2024-03-25T09:28:05;8.23;;;1.13;;
45836;SDS011;31548;51.420;-0.040;2024-03-25T09:30:32;7.28;;;0.80;;
45836;SDS011;31548;51.420;-0.040;2024-03-25T09:32:58;14.85;;;1.15;;
45836;SDS011;31548;51.420;-0.040;2024-03-25T09:35:25;12.07;;;1.00;;
45836;SDS011;31548;51.420;-0.040;2024-03-25T09:37:51;12.48;;;0.95;;
45836;SDS011;31548;51.420;-0.040;2024-03-25T09:40:17;9.60;;;1.00;;
45836;SDS011;31548;51.420;-0.040;2024-03-25T09:42:47;8.50;;;0.80;;
45836;SDS011;31548;51.420;-0.040;2024-03-25T09:45:16;15.50;;;2.33;;
45836;SDS011;31548;51.420;-0.040;2024-03-25T09:47:46;8.98;;;0.95;;
45836;SDS011;31548;51.420;-0.040;2024-03-25T09:50:14;7.63;;;0.73;;
45836;SDS011;31548;51.420;-0.040;2024-03-25T09:52:45;7.13;;;0.80;;
45836;SDS011;31548;51.420;-0.040;2024-03-25T09:55:12;11.40;;;1.70;;
45836;SDS011;31548;51.420;-0.040;2024-03-25T09:57:39;8.52;;;0.90;;
45836;SDS011;31548;51.420;-0.040;2024-03-25T10:00:08;6.10;;;0.70;;
45836;SDS011;31548;51.420;-0.040;2024-03-25T10:02:43;9.73;;;1.42;;
45836;SDS011;31548;51.420;-0.040;2024-03-25T10:05:10;4.90;;;0.63;;
45836;SDS011;31548;51.420;-0.040;2024-03-25T10:07:36;12.10;;;1.17;;
45836;SDS011;31548;51.420;-0.040;2024-03-25T10:10:03;6.82;;;0.80;;
45836;SDS011;31548;51.420;-0.040;2024-03-25T10:12:30;8.85;;;1.02;;
45836;SDS011;31548;51.420;-0.040;2024-03-25T10:14:57;5.35;;;1.15;;
45836;SDS011;31548;51.420;-0.040;2024-03-25T10:17:24;6.32;;;0.90;;
45836;SDS011;31548;51.420;-0.040;2024-03-25T10:19:50;8.32;;;0.80;;
45836;SDS011;31548;51.420;-0.040;2024-03-25T10:22:19;11.43;;;0.88;;
45836;SDS011;31548;51.420;-0.040;2024-03-25T10:24:47;6.43;;;0.80;;
45836;SDS011;31548;51.420;-0.040;2024-03-25T10:29:47;7.43;;;1.25;;
45836;SDS011;31548;51.420;-0.040;2024-03-25T10:32:14;9.10;;;0.70;;
45836;SDS011;31548;51.420;-0.040;2024-03-25T10:34:40;5.35;;;0.60;;
45836;SDS011;31548;51.420;-0.040;2024-03-25T10:37:08;8.35;;;0.70;;
45836;SDS011;31548;51.420;-0.040;2024-03-25T10:39:39;6.35;;;0.70;;
45836;SDS011;31548;51.420;-0.040;2024-03-25T10:42:13;5.65;;;0.70;;
45836;SDS011;31548;51.420;-0.040;2024-03-25T10:44:44;6.90;;;0.77;;
45836;SDS011;31548;51.420;-0.040;2024-03-25T10:47:19;4.88;;;0.98;;
45836;SDS011;31548;51.420;-0.040;2024-03-25T10:49:48;5.68;;;0.95;;
45836;SDS011;31548;51.420;-0.040;2024-03-25T10:52:17;6.20;;;0.80;;
45836;SDS011;31548;51.420;-0.040;2024-03-25T10:54:46;9.73;;;1.65;;
45836;SDS011;31548;51.420;-0.040;2024-03-25T10:57:17;16.02;;;2.35;;
45836;SDS011;31548;51.420;-0.040;2024-03-25T10:59:44;9.02;;;0.80;;
45836;SDS011;31548;51.420;-0.040;2024-03-25T11:02:11;7.93;;;0.80;;
45836;SDS011;31548;51.420;-0.040;2024-03-25T11:04:40;10.07;;;0.95;;
45836;SDS011;31548;51.420;-0.040;2024-03-25T11:07:09;7.00;;;0.73;;
45836;SDS011;31548;51.420;-0.040;2024-03-25T11:09:39;6.45;;;0.80;;
45836;SDS011;31548;51.420;-0.040;2024-03-25T11:12:07;11.18;;;0.90;;
45836;SDS011;31548;51.420;-0.040;2024-03-25T11:14:36;13.00;;;1.00;;
45836;SDS011;31548;51.420;-0.040;2024-03-25T11:17:02;10.60;;;1.35;;
45836;SDS011;31548;51.420;-0.040;2024-03-25T11:19:39;9.38;;;1.27;;
45836;SDS011;31548;51.420;-0.040;2024-03-25T11:22:09;10.18;;;0.80;;
45836;SDS011;31548;51.420;-0.040;2024-03-25T11:24:36;9.65;;;0.95;;
45836;SDS011;31548;51.420;-0.040;2024-03-25T11:27:07;15.05;;;1.00;;
45836;SDS011;31548;51.420;-0.040;2024-03-25T11:29:34;4.97;;;0.80;;
45836;SDS011;31548;51.420;-0.040;2024-03-25T11:32:04;7.35;;;0.73;;
45836;SDS011;31548;51.420;-0.040;2024-03-25T11:34:31;4.50;;;0.77;;
45836;SDS011;31548;51.420;-0.040;2024-03-25T11:36:58;10.23;;;0.73;;
45836;SDS011;31548;51.420;-0.040;2024-03-25T11:39:24;10.10;;;1.33;;
45836;SDS011;31548;51.420;-0.040;2024-03-25T11:41:52;8.05;;;1.17;;
45836;SDS011;31548;51.420;-0.040;2024-03-25T11:44:19;14.40;;;1.17;;
45836;SDS011;31548;51.420;-0.040;2024-03-25T11:46:47;8.23;;;1.10;;
45836;SDS011;31548;51.420;-0.040;2024-03-25T11:49:15;16.08;;;0.80;;
45836;SDS011;31548;51.420;-0.040;2024-03-25T11:51:45;12.23;;;0.82;;
45836;SDS011;31548;51.420;-0.040;2024-03-25T11:54:12;10.68;;;1.15;;
45836;SDS011;31548;51.420;-0.040;2024-03-25T11:56:40;10.75;;;0.90;;
45836;SDS011;31548;51.420;-0.040;2024-03-25T11:59:08;7.65;;;1.30;;
45836;SDS011;31548;51.420;-0.040;2024-03-25T12:01:34;9.90;;;1.17;;
45836;SDS011;31548;51.420;-0.040;2024-03-25T12:04:10;11.05;;;0.95;;
45836;SDS011;31548;51.420;-0.040;2024-03-25T12:06:37;15.80;;;1.30;;
45836;SDS011;31548;51.420;-0.040;2024-03-25T12:09:04;13.82;;;1.55;;
45836;SDS011;31548;51.420;-0.040;2024-03-25T12:11:48;14.55;;;1.17;;
45836;SDS011;31548;51.420;-0.040;2024-03-25T12:14:15;8.23;;;1.05;;
45836;SDS011;31548;51.420;-0.040;2024-03-25T12:16:42;8.23;;;0.80;;
45836;SDS011;31548;51.420;-0.040;2024-03-25T12:19:08;7.35;;;0.75;;
45836;SDS011;31548;51.420;-0.040;2024-03-25T12:21:35;9.32;;;1.38;;
45836;SDS011;31548;51.420;-0.040;2024-03-25T12:24:03;7.88;;;0.90;;
45836;SDS011;31548;51.420;-0.040;2024-03-25T12:26:30;9.38;;;1.45;;
45836;SDS011;31548;51.420;-0.040;2024-03-25T12:28:57;7.90;;;0.80;;
45836;SDS011;31548;51.420;-0.040;2024-03-25T12:31:24;10.18;;;0.65;;
45836;SDS011;31548;51.420;-0.040;2024-03-25T12:33:50;10.02;;;1.00;;
45836;SDS011;31548;51.420;-0.040;2024-03-25T12:36:16;7.78;;;0.93;;
45836;SDS011;31548;51.420;-0.040;2024-03-25T12:38:43;13.38;;;1.30;;
45836;SDS011;31548;51.420;-0.040;2024-03-25T12:41:09;5.10;;;0.98;;
45836;SDS011;31548;51.420;-0.040;2024-03-25T12:43:41;10.82;;;0.93;;
45836;SDS011;31548;51.420;-0.040;2024-03-25T12:46:09;12.75;;;0.90;;
45836;SDS011;31548;51.420;-0.040;2024-03-25T12:48:36;11.95;;;0.80;;
45836;SDS011;31548;51.420;-0.040;2024-03-25T12:51:03;10.18;;;1.58;;
45836;SDS011;31548;51.420;-0.040;2024-03-25T12:53:30;8.95;;;1.00;;
45836;SDS011;31548;51.420;-0.040;2024-03-25T12:55:56;16.88;;;1.05;;
45836;SDS011;31548;51.420;-0.040;2024-03-25T12:58:23;11.27;;;1.33;;
45836;SDS011;31548;51.420;-0.040;2024-03-25T13:00:49;5.68;;;0.95;;
45836;SDS011;31548;51.420;-0.040;2024-03-25T13:03:15;6.82;;;0.90;;
45836;SDS011;31548;51.420;-0.040;2024-03-25T13:05:42;9.60;;;1.20;;
45836;SDS011;31548;51.420;-0.040;2024-03-25T13:08:09;12.50;;;1.40;;
45836;SDS011;31548;51.420;-0.040;2024-03-25T13:10:35;13.52;;;1.70;;
45836;SDS011;31548;51.420;-0.040;2024-03-25T13:13:02;7.93;;;0.80;;
45836;SDS011;31548;51.420;-0.040;2024-03-25T13:15:31;6.50;;;0.80;;
45836;SDS011;31548;51.420;-0.040;2024-03-25T13:17:57;6.82;;;1.02;;
45836;SDS011;31548;51.420;-0.040;2024-03-25T13:20:23;5.72;;;1.38;;
45836;SDS011;31548;51.420;-0.040;2024-03-25T13:22:51;10.57;;;1.48;;
45836;SDS011;31548;51.420;-0.040;2024-03-25T13:25:22;9.63;;;1.10;;
45836;SDS011;31548;51.420;-0.040;2024-03-25T13:27:49;13.32;;;1.42;;
45836;SDS011;31548;51.420;-0.040;2024-03-25T13:30:15;7.10;;;1.48;;
45836;SDS011;31548;51.420;-0.040;2024-03-25T13:32:41;7.88;;;0.98;;
45836;SDS011;31548;51.420;-0.040;2024-03-25T13:35:07;11.30;;;1.00;;
45836;SDS011;31548;51.420;-0.040;2024-03-25T13:37:34;9.55;;;0.80;;
45836;SDS011;31548;51.420;-0.040;2024-03-25T13:40:00;6.38;;;1.00;;
45836;SDS011;31548;51.420;-0.040;2024-03-25T13:42:26;9.40;;;0.98;;
45836;SDS011;31548;51.420;-0.040;2024-03-25T13:44:52;10.80;;;0.93;;
45836;SDS011;31548;51.420;-0.040;2024-03-25T13:47:18;5.95;;;0.80;;
45836;SDS011;31548;51.420;-0.040;2024-03-25T13:49:45;4.93;;;0.95;;
45836;SDS011;31548;51.420;-0.040;2024-03-25T13:52:11;7.18;;;1.40;;
45836;SDS011;31548;51.420;-0.040;2024-03-25T13:54:37;7.88;;;0.90;;
45836;SDS011;31548;51.420;-0.040;2024-03-25T13:57:04;7.50;;;1.10;;
45836;SDS011;31548;51.420;-0.040;2024-03-25T13:59:30;9.90;;;1.20;;
45836;SDS011;31548;51.420;-0.040;2024-03-25T14:01:56;4.45;;;0.80;;
45836;SDS011;31548;51.420;-0.040;2024-03-25T14:04:23;9.35;;;0.70;;
45836;SDS011;31548;51.420;-0.040;2024-03-25T14:06:49;8.02;;;0.90;;
45836;SDS011;31548;51.420;-0.040;2024-03-25T14:09:25;10.50;;;1.02;;
45836;SDS011;31548;51.420;-0.040;2024-03-25T14:11:51;5.50;;;0.60;;
45836;SDS011;31548;51.420;-0.040;2024-03-25T14:14:18;11.90;;;1.02;;
45836;SDS011;31548;51.420;-0.040;2024-03-25T14:16:44;9.80;;;1.00;;
45836;SDS011;31548;51.420;-0.040;2024-03-25T14:19:11;11.63;;;0.80;;
45836;SDS011;31548;51.420;-0.040;2024-03-25T14:21:37;10.48;;;1.00;;
45836;SDS011;31548;51.420;-0.040;2024-03-25T14:24:04;7.00;;;0.82;;
45836;SDS011;31548;51.420;-0.040;2024-03-25T14:26:31;8.50;;;0.90;;
45836;SDS011;31548;51.420;-0.040;2024-03-25T14:28:57;7.78;;;0.95;;
45836;SDS011;31548;51.420;-0.040;2024-03-25T14:31:25;8.73;;;0.90;;
45836;SDS011;31548;51.420;-0.040;2024-03-25T14:33:53;5.70;;;0.80;;
45836;SDS011;31548;51.420;-0.040;2024-03-25T14:36:20;4.45;;;1.10;;